Time;durP1;ratioP1;P1;durP2;ratioP2;P2;SDS_P1;SDS_P2;PMS_P1;PMS_P2;Temp;Humidity;BMP_temperature;BMP_pressure;BME280_temperature;BME280_humidity;BME280_pressure;Samples;Min_cycle;Max_cycle;Signal;HPM_P1;HPM_P2
2022/07/25 00:00:13;;;;;;;;;;;;;;;24.95;49.38;99547.75;1082750;31;20387;-72
2022/07/25 00:01:16;;;;;;;;;;;;;;;24.90;50.07;99546.56;1082580;54;20473;-73
2022/07/25 00:02:20;;;;;;;;;;;;;;;24.89;49.60;99549.56;1083193;39;20365;-71
2022/07/25 00:03:21;;;;;;;;;;;;;;;24.89;50.04;99547.66;1082457;54;19953;-73
2022/07/25 00:04:25;;;;;;;;;;;;;;;24.89;50.25;99544.09;1082463;54;19954;-73
2022/07/25 00:05:29;;;;;;;;;;;;;;;24.88;50.02;99542.44;1082802;39;20342;-73
2022/07/25 00:06:33;;;;;;;;;;;;;;;24.86;50.59;99542.72;1082638;54;19970;-71
2022/07/25 00:07:34;;;;;;;;;;;;;;;24.76;51.60;99540.66;1082340;54;19946;-71
2022/07/25 00:08:37;;;;;;;;;;;;;;;24.73;51.50;99540.31;1082777;54;19974;-73
2022/07/25 00:09:38;;;;;;;;;;;;;;;24.74;50.94;99542.81;1082789;39;20364;-74
2022/07/25 00:10:42;;;;;;;;;;;;;;;24.73;50.95;99541.16;1082819;39;20424;-72
2022/07/25 00:11:43;;;;;;;;;;;;;;;24.72;50.86;99542.25;1082441;54;20471;-71
2022/07/25 00:12:47;;;;;;;;;;;;;;;24.71;51.32;99539.75;1082762;54;20188;-72
2022/07/25 00:13:48;;;;;;;;;;;;;;;24.65;51.60;99538.84;1082517;54;19946;-72
2022/07/25 00:14:52;;;;;;;;;;;;;;;24.65;51.76;99535.25;1082668;54;19973;-72
2022/07/25 00:15:53;;;;;;;;;;;;;;;24.66;51.60;99537.72;1082439;54;19946;-72
2022/07/25 00:16:57;;;;;;;;;;;;;;;24.67;51.25;99535.84;1082888;54;19958;-72
2022/07/25 00:17:58;;;;;;;;;;;;;;;24.66;51.97;99535.00;1082746;54;19978;-70
2022/07/25 00:19:02;;;;;;;;;;;;;;;24.67;51.88;99531.19;1084772;31;20485;-70
2022/07/25 00:20:03;;;;;;;;;;;;;;;24.68;51.56;99534.78;1082730;54;19985;-71
2022/07/25 00:21:10;;;;;;;;;;;;;;;24.66;52.03;99537.72;1082686;54;19947;-70
2022/07/25 00:22:13;;;;;;;;;;;;;;;24.66;51.63;99532.25;1082652;54;19947;-71
2022/07/25 00:23:14;;;;;;;;;;;;;;;24.63;52.58;99535.50;1082565;54;20483;-71
2022/07/25 00:24:18;;;;;;;;;;;;;;;24.56;52.92;99532.13;1082452;54;19950;-72
2022/07/25 00:25:19;;;;;;;;;;;;;;;24.50;53.04;99533.13;1082257;54;19977;-71
2022/07/25 00:26:23;;;;;;;;;;;;;;;24.47;53.24;99530.91;1082960;54;19977;-71
2022/07/25 00:27:24;;;;;;;;;;;;;;;24.36;53.50;99527.16;1083044;54;20441;-71
2022/07/25 00:28:28;;;;;;;;;;;;;;;24.23;53.32;99525.59;1082752;54;19947;-71
2022/07/25 00:29:29;;;;;;;;;;;;;;;24.09;54.02;99525.91;1083173;54;19947;-71
2022/07/25 00:30:33;;;;;;;;;;;;;;;23.92;54.46;99525.03;1082639;54;19947;-71
2022/07/25 00:31:34;;;;;;;;;;;;;;;23.81;54.62;99526.75;1083733;31;20424;-72
2022/07/25 00:32:38;;;;;;;;;;;;;;;23.76;54.56;99527.50;1082185;54;19996;-70
2022/07/25 00:33:39;;;;;;;;;;;;;;;23.75;54.38;99530.47;1082442;54;19954;-71
2022/07/25 00:34:43;;;;;;;;;;;;;;;23.71;54.04;99529.28;1082545;54;20018;-72
2022/07/25 00:35:44;;;;;;;;;;;;;;;23.72;54.29;99534.50;1082266;54;20648;-71
2022/07/25 00:36:50;;;;;;;;;;;;;;;23.67;54.33;99529.78;1082739;47;20480;-72
2022/07/25 00:37:51;;;;;;;;;;;;;;;23.67;54.44;99537.16;1082605;54;19951;-71
2022/07/25 00:38:55;;;;;;;;;;;;;;;23.66;54.12;99527.31;1082331;54;19958;-71
2022/07/25 00:39:56;;;;;;;;;;;;;;;23.60;54.56;99525.56;1082508;54;19946;-72
2022/07/25 00:41:00;;;;;;;;;;;;;;;23.49;54.90;99529.97;1082056;54;19947;-72
2022/07/25 00:42:01;;;;;;;;;;;;;;;23.39;54.95;99527.88;1082378;54;19946;-72
2022/07/25 00:43:04;;;;;;;;;;;;;;;23.36;54.94;99528.34;1082219;54;19959;-70
2022/07/25 00:44:06;;;;;;;;;;;;;;;23.32;54.78;99532.66;1082567;54;19970;-70
2022/07/25 00:45:10;;;;;;;;;;;;;;;23.27;54.89;99529.81;1082374;54;19950;-71
2022/07/25 00:46:11;;;;;;;;;;;;;;;23.27;55.15;99538.84;1082522;54;20019;-71
2022/07/25 00:47:15;;;;;;;;;;;;;;;23.27;55.32;99527.06;1082495;54;19959;-71
2022/07/25 00:48:17;;;;;;;;;;;;;;;23.25;55.55;99534.66;1082639;54;19950;-71
2022/07/25 00:49:21;;;;;;;;;;;;;;;23.27;55.47;99529.81;1082405;54;19969;-72
2022/07/25 00:50:22;;;;;;;;;;;;;;;23.35;54.98;99534.88;1082492;54;20077;-73
2022/07/25 00:51:26;;;;;;;;;;;;;;;23.42;54.96;99532.88;1082242;54;19953;-70
2022/07/25 00:52:30;;;;;;;;;;;;;;;23.43;54.69;99528.22;1082510;54;19970;-71
2022/07/25 00:53:34;;;;;;;;;;;;;;;23.37;55.58;99535.47;1082358;54;19970;-71
2022/07/25 00:54:35;;;;;;;;;;;;;;;23.32;55.48;99528.00;1082332;54;19973;-71
2022/07/25 00:55:39;;;;;;;;;;;;;;;23.27;55.53;99530.66;1082752;46;19950;-71
2022/07/25 00:56:40;;;;;;;;;;;;;;;23.27;55.66;99527.06;1082419;54;19958;-71
2022/07/25 00:57:44;;;;;;;;;;;;;;;23.26;55.79;99528.16;1082415;54;19950;-71
2022/07/25 00:58:45;;;;;;;;;;;;;;;23.26;56.00;99528.16;1082446;54;19951;-71
2022/07/25 00:59:49;;;;;;;;;;;;;;;23.26;55.98;99526.25;1082258;54;19974;-73
2022/07/25 01:00:50;;;;;;;;;;;;;;;23.23;56.46;99528.66;1082086;54;19969;-71
2022/07/25 01:01:54;;;;;;;;;;;;;;;23.27;56.19;99530.66;1082407;54;19946;-72
2022/07/25 01:02:55;;;;;;;;;;;;;;;23.25;56.38;99526.47;1082433;54;19973;-71
2022/07/25 01:03:59;;;;;;;;;;;;;;;23.28;56.08;99524.13;1082422;54;19947;-71
2022/07/25 01:05:00;;;;;;;;;;;;;;;23.31;56.30;99520.09;1082665;54;20549;-73
2022/07/25 01:06:04;;;;;;;;;;;;;;;23.28;56.63;99518.69;1082620;54;19975;-71
2022/07/25 01:07:05;;;;;;;;;;;;;;;23.27;56.53;99521.63;1082401;54;20460;-73
2022/07/25 01:08:12;;;;;;;;;;;;;;;23.27;56.47;99521.63;1082333;54;20445;-70
2022/07/25 01:09:13;;;;;;;;;;;;;;;23.28;56.69;99515.09;1082470;54;20772;-71
2022/07/25 01:10:17;;;;;;;;;;;;;;;23.30;56.57;99529.34;1082265;54;19950;-71
2022/07/25 01:11:18;;;;;;;;;;;;;;;23.27;56.65;99521.63;1082377;54;19958;-71
2022/07/25 01:12:22;;;;;;;;;;;;;;;23.24;56.31;99522.13;1082360;54;19981;-73
2022/07/25 01:13:23;;;;;;;;;;;;;;;23.24;56.45;99524.84;1082378;54;20034;-72
2022/07/25 01:14:26;;;;;;;;;;;;;;;23.23;56.30;99520.47;1082986;31;20382;-71
2022/07/25 01:15:27;;;;;;;;;;;;;;;23.19;56.42;99511.94;1082342;54;20041;-72
2022/07/25 01:16:31;;;;;;;;;;;;;;;23.15;56.68;99516.19;1082498;54;19958;-71
2022/07/25 01:17:32;;;;;;;;;;;;;;;23.16;56.51;99521.38;1082350;54;19951;-71
2022/07/25 01:18:37;;;;;;;;;;;;;;;23.15;56.52;99522.44;1082403;54;19954;-72
2022/07/25 01:19:38;;;;;;;;;;;;;;;23.13;56.74;99521.88;1082419;54;20050;-72
2022/07/25 01:20:44;;;;;;;;;;;;;;;23.12;57.20;99522.94;1082482;54;19947;-72
2022/07/25 01:21:45;;;;;;;;;;;;;;;23.10;57.11;99516.91;1082349;54;19981;-70
2022/07/25 01:22:49;;;;;;;;;;;;;;;23.14;57.28;99520.81;1082493;54;19973;-71
2022/07/25 01:23:50;;;;;;;;;;;;;;;23.14;57.31;99520.81;1082853;39;20364;-71
2022/07/25 01:24:54;;;;;;;;;;;;;;;23.25;56.72;99516.44;1082873;31;20373;-73
2022/07/25 01:25:55;;;;;;;;;;;;;;;23.30;56.74;99510.25;1082471;54;20799;-74
2022/07/25 01:26:59;;;;;;;;;;;;;;;23.34;56.61;99504.06;1082322;54;19974;-70
2022/07/25 01:28:00;;;;;;;;;;;;;;;23.39;56.34;99505.22;1082379;54;19950;-71
2022/07/25 01:29:04;;;;;;;;;;;;;;;23.42;56.23;99502.88;1082529;54;19950;-71
2022/07/25 01:30:06;;;;;;;;;;;;;;;23.43;55.94;99506.41;1082337;54;19946;-72
2022/07/25 01:31:10;;;;;;;;;;;;;;;23.36;56.17;99506.53;1082464;54;20058;-71
2022/07/25 01:32:12;;;;;;;;;;;;;;;23.28;56.29;99504.19;1082468;54;19974;-70
2022/07/25 01:33:17;;;;;;;;;;;;;;;23.29;56.26;99503.13;1082261;54;19946;-73
2022/07/25 01:34:18;;;;;;;;;;;;;;;23.24;56.33;99500.31;1082484;54;19958;-71
2022/07/25 01:35:21;;;;;;;;;;;;;;;23.18;56.21;99505.66;1082302;54;20798;-70
2022/07/25 01:36:25;;;;;;;;;;;;;;;23.16;56.21;99501.47;1082531;54;19947;-69
2022/07/25 01:37:29;;;;;;;;;;;;;;;23.12;56.67;99495.69;1082217;54;19951;-74
2022/07/25 01:38:30;;;;;;;;;;;;;;;23.05;56.31;99494.97;1082526;54;20432;-72
2022/07/25 01:39:34;;;;;;;;;;;;;;;23.03;56.74;99508.03;1082345;54;19970;-70
2022/07/25 01:40:35;;;;;;;;;;;;;;;23.01;56.88;99504.72;1082184;54;19947;-73
2022/07/25 01:41:39;;;;;;;;;;;;;;;22.96;57.58;99499.13;1082450;54;19947;-71
2022/07/25 01:42:40;;;;;;;;;;;;;;;22.92;57.34;99497.97;1082377;54;19958;-73
2022/07/25 01:43:44;;;;;;;;;;;;;;;22.94;57.27;99502.13;1082391;54;19950;-71
2022/07/25 01:44:45;;;;;;;;;;;;;;;23.00;57.23;99501.16;1082390;54;20499;-71
2022/07/25 01:45:48;;;;;;;;;;;;;;;22.95;57.61;99494.78;1082220;54;20050;-70
2022/07/25 01:46:51;;;;;;;;;;;;;;;22.89;57.83;99497.38;1083096;39;20344;-70
2022/07/25 01:47:55;;;;;;;;;;;;;;;22.89;57.77;99499.28;1082385;54;20050;-72
2022/07/25 01:48:56;;;;;;;;;;;;;;;22.81;58.37;99494.22;1082554;54;19954;-69
2022/07/25 01:49:59;;;;;;;;;;;;;;;22.79;58.49;99501.78;1082836;39;20485;-71
2022/07/25 01:51:01;;;;;;;;;;;;;;;22.72;58.63;99504.63;1082338;54;20418;-72
2022/07/25 01:52:07;;;;;;;;;;;;;;;22.66;59.16;99494.72;1082547;54;19946;-70
2022/07/25 01:53:08;;;;;;;;;;;;;;;22.63;59.86;99501.44;1082108;54;20433;-72
2022/07/25 01:54:12;;;;;;;;;;;;;;;22.66;59.77;99506.41;1082236;54;19946;-70
2022/07/25 01:55:13;;;;;;;;;;;;;;;22.55;60.79;99497.19;1082270;54;19973;-70
2022/07/25 01:56:17;;;;;;;;;;;;;;;22.50;61.22;99499.78;1082720;39;20344;-69
2022/07/25 01:57:18;;;;;;;;;;;;;;;22.52;61.13;99499.56;1082594;54;19989;-70
2022/07/25 01:58:21;;;;;;;;;;;;;;;22.52;60.73;99492.22;1082978;54;19958;-70
2022/07/25 01:59:23;;;;;;;;;;;;;;;22.54;60.65;99494.69;1083703;54;19947;-71
2022/07/25 02:00:26;;;;;;;;;;;;;;;22.47;61.03;99494.84;1083775;54;20456;-71
2022/07/25 02:01:27;;;;;;;;;;;;;;;22.44;61.47;99489.84;1083680;54;19946;-70
2022/07/25 02:02:31;;;;;;;;;;;;;;;22.38;61.16;99502.47;1084745;39;20020;-73
2022/07/25 02:03:32;;;;;;;;;;;;;;;22.38;61.39;99490.78;1083767;54;19946;-70
2022/07/25 02:04:37;;;;;;;;;;;;;;;22.34;61.25;99489.56;1082879;54;19951;-71
2022/07/25 02:05:39;;;;;;;;;;;;;;;22.36;61.21;99487.44;1082452;54;19950;-71
2022/07/25 02:06:43;;;;;;;;;;;;;;;22.42;61.13;99486.53;1082409;54;19954;-72
2022/07/25 02:07:47;;;;;;;;;;;;;;;22.42;60.77;99489.25;1082590;47;20477;-70
2022/07/25 02:08:50;;;;;;;;;;;;;;;22.45;61.16;99488.78;1082585;54;20456;-70
2022/07/25 02:09:51;;;;;;;;;;;;;;;22.45;60.85;99477.91;1083581;39;20351;-71
2022/07/25 02:10:56;;;;;;;;;;;;;;;22.37;61.14;99476.31;1082351;54;19951;-72
2022/07/25 02:11:57;;;;;;;;;;;;;;;22.26;61.86;99480.69;1082320;54;19946;-72
2022/07/25 02:13:01;;;;;;;;;;;;;;;22.32;61.34;99475.38;1082524;54;19959;-71
2022/07/25 02:14:03;;;;;;;;;;;;;;;22.31;61.74;99473.69;1082500;54;19947;-71
2022/07/25 02:15:07;;;;;;;;;;;;;;;22.25;61.36;99476.31;1082601;54;19970;-70
2022/07/25 02:16:08;;;;;;;;;;;;;;;22.22;61.40;99471.34;1082876;39;20372;-71
2022/07/25 02:17:12;;;;;;;;;;;;;;;22.23;61.23;99472.19;1082354;54;20535;-72
2022/07/25 02:18:13;;;;;;;;;;;;;;;22.16;61.36;99477.72;1082580;54;20429;-72
2022/07/25 02:19:17;;;;;;;;;;;;;;;22.16;61.37;99471.44;1082399;54;19958;-71
2022/07/25 02:20:18;;;;;;;;;;;;;;;22.18;61.03;99464.72;1082961;39;20429;-71
2022/07/25 02:21:22;;;;;;;;;;;;;;;22.17;60.99;99463.06;1082320;54;19946;-71
2022/07/25 02:22:23;;;;;;;;;;;;;;;22.20;61.34;99465.28;1082948;54;19950;-73
2022/07/25 02:23:29;;;;;;;;;;;;;;;22.14;60.88;99463.53;1082874;39;20595;-70
2022/07/25 02:24:31;;;;;;;;;;;;;;;22.15;60.76;99459.75;1082600;54;19969;-72
2022/07/25 02:25:35;;;;;;;;;;;;;;;22.12;60.53;99457.47;1082928;39;20606;-72
2022/07/25 02:26:36;;;;;;;;;;;;;;;22.13;60.83;99468.16;1082599;54;19969;-72
2022/07/25 02:27:40;;;;;;;;;;;;;;;22.16;60.67;99461.41;1082434;54;19946;-70
2022/07/25 02:28:41;;;;;;;;;;;;;;;22.17;60.81;99465.78;1082255;54;19946;-71
2022/07/25 02:29:45;;;;;;;;;;;;;;;22.25;60.61;99468.16;1082512;54;19973;-72
2022/07/25 02:30:46;;;;;;;;;;;;;;;22.23;60.25;99459.38;1082451;54;20571;-70
2022/07/25 02:31:50;;;;;;;;;;;;;;;22.18;60.67;99461.16;1082502;54;19954;-72
2022/07/25 02:32:52;;;;;;;;;;;;;;;22.19;60.56;99458.22;1082736;54;20587;-69
2022/07/25 02:33:55;;;;;;;;;;;;;;;22.22;60.78;99465.88;1082529;54;19970;-70
2022/07/25 02:34:57;;;;;;;;;;;;;;;22.17;60.77;99473.94;1082789;54;20437;-70
2022/07/25 02:36:01;;;;;;;;;;;;;;;22.22;60.91;99463.16;1082945;54;19947;-69
2022/07/25 02:37:02;;;;;;;;;;;;;;;22.24;60.97;99466.50;1082515;54;19973;-72
2022/07/25 02:38:05;;;;;;;;;;;;;;;22.29;61.03;99472.03;1082691;54;20539;-70
2022/07/25 02:39:09;;;;;;;;;;;;;;;22.34;60.92;99465.06;1083393;39;20669;-71
2022/07/25 02:40:13;;;;;;;;;;;;;;;22.36;60.98;99468.41;1087124;54;19958;-77
2022/07/25 02:41:14;;;;;;;;;;;;;;;22.44;60.66;99459.91;1087646;47;20948;-78
2022/07/25 02:42:18;;;;;;;;;;;;;;;22.48;60.33;99469.25;1087744;54;19949;-78
2022/07/25 02:43:19;;;;;;;;;;;;;;;22.49;60.54;99464.63;1087842;54;19950;-79
2022/07/25 02:44:23;;;;;;;;;;;;;;;22.51;60.35;99463.31;1087601;54;20019;-78
2022/07/25 02:45:24;;;;;;;;;;;;;;;22.56;59.76;99462.59;1087394;54;19945;-78
2022/07/25 02:46:28;;;;;;;;;;;;;;;22.59;60.08;99468.41;1087702;54;19946;-77
2022/07/25 02:47:29;;;;;;;;;;;;;;;22.64;59.14;99459.50;1089792;39;20810;-77
2022/07/25 02:48:33;;;;;;;;;;;;;;;22.70;58.93;99463.19;1087631;54;19946;-77
2022/07/25 02:49:34;;;;;;;;;;;;;;;22.73;59.20;99462.72;1087637;54;19947;-77
2022/07/25 02:50:38;;;;;;;;;;;;;;;22.74;58.64;99458.91;1087591;54;19955;-77
2022/07/25 02:51:42;;;;;;;;;;;;;;;22.75;58.89;99464.13;1087508;54;19943;-77
2022/07/25 02:52:43;;;;;;;;;;;;;;;22.76;58.40;99462.25;1087622;54;19942;-78
2022/07/25 02:53:47;;;;;;;;;;;;;;;22.75;58.32;99460.59;1087706;54;20654;-77
2022/07/25 02:54:50;;;;;;;;;;;;;;;22.74;58.08;99461.66;1087621;54;19951;-78
2022/07/25 02:55:54;;;;;;;;;;;;;;;22.71;57.94;99456.66;1087696;54;19966;-79
2022/07/25 02:56:55;;;;;;;;;;;;;;;22.68;58.15;99457.97;1088097;39;20475;-77
2022/07/25 02:57:59;;;;;;;;;;;;;;;22.66;58.33;99460.09;1087727;54;19943;-78
2022/07/25 02:59:00;;;;;;;;;;;;;;;22.67;57.93;99455.50;1087673;54;19953;-77
2022/07/25 03:00:05;;;;;;;;;;;;;;;22.65;58.27;99452.19;1087714;54;19954;-78
2022/07/25 03:01:06;;;;;;;;;;;;;;;22.64;58.06;99456.78;1087564;54;19947;-78
2022/07/25 03:02:10;;;;;;;;;;;;;;;22.64;57.83;99466.88;1087645;54;19957;-79
2022/07/25 03:03:11;;;;;;;;;;;;;;;22.59;58.05;99460.22;1087647;54;19942;-78
2022/07/25 03:04:15;;;;;;;;;;;;;;;22.62;58.05;99455.38;1087869;54;19942;-78
2022/07/25 03:05:16;;;;;;;;;;;;;;;22.61;58.03;99456.44;1087992;54;19943;-78
2022/07/25 03:06:20;;;;;;;;;;;;;;;22.59;57.58;99453.97;1088131;54;19943;-79
2022/07/25 03:07:21;;;;;;;;;;;;;;;22.56;57.46;99458.00;1087960;54;19958;-78
2022/07/25 03:08:25;;;;;;;;;;;;;;;22.57;57.55;99464.25;1087923;54;19949;-78
2022/07/25 03:09:27;;;;;;;;;;;;;;;22.57;57.76;99461.53;1088056;54;19977;-77
2022/07/25 03:10:35;;;;;;;;;;;;;;;22.52;57.57;99454.09;1087958;54;19943;-78
2022/07/25 03:11:36;;;;;;;;;;;;;;;22.57;57.54;99453.38;1088042;54;19974;-77
2022/07/25 03:12:40;;;;;;;;;;;;;;;22.56;57.66;99455.28;1087991;54;20005;-79
2022/07/25 03:13:41;;;;;;;;;;;;;;;22.57;57.97;99454.22;1087969;54;20052;-80
2022/07/25 03:14:45;;;;;;;;;;;;;;;22.56;57.92;99451.72;1089018;46;19943;-78
2022/07/25 03:15:46;;;;;;;;;;;;;;;22.55;57.53;99453.63;1088423;54;19950;-77
2022/07/25 03:16:49;;;;;;;;;;;;;;;22.57;57.71;99450.66;1088413;54;19987;-77
2022/07/25 03:17:50;;;;;;;;;;;;;;;22.56;57.75;99449.00;1088434;54;20486;-77
2022/07/25 03:18:54;;;;;;;;;;;;;;;22.57;57.48;99454.22;1089923;39;20400;-78
2022/07/25 03:19:55;;;;;;;;;;;;;;;22.58;57.65;99444.94;1088484;54;19942;-78
2022/07/25 03:20:59;;;;;;;;;;;;;;;22.55;57.60;99439.16;1088389;54;19935;-77
2022/07/25 03:22:00;;;;;;;;;;;;;;;22.55;57.68;99442.72;1088454;54;19942;-77
2022/07/25 03:23:04;;;;;;;;;;;;;;;22.50;58.07;99439.88;1088494;54;19950;-79
2022/07/25 03:24:05;;;;;;;;;;;;;;;22.51;58.05;99441.53;1088492;54;19935;-77
2022/07/25 03:25:10;;;;;;;;;;;;;;;22.50;58.04;99439.88;1088524;54;19943;-78
2022/07/25 03:26:13;;;;;;;;;;;;;;;22.50;58.21;99434.44;1088523;46;19946;-78
2022/07/25 03:27:17;;;;;;;;;;;;;;;22.49;58.07;99437.41;1088429;54;19949;-78
2022/07/25 03:28:19;;;;;;;;;;;;;;;22.48;58.01;99431.13;1088446;54;19958;-80
2022/07/25 03:29:23;;;;;;;;;;;;;;;22.48;58.09;99431.13;1088145;54;19951;-78
2022/07/25 03:30:24;;;;;;;;;;;;;;;22.50;58.19;99434.44;1087928;54;19942;-78
2022/07/25 03:31:28;;;;;;;;;;;;;;;22.51;58.56;99430.63;1088021;54;19943;-80
2022/07/25 03:32:29;;;;;;;;;;;;;;;22.50;58.47;99434.44;1088419;54;19943;-78
2022/07/25 03:33:33;;;;;;;;;;;;;;;22.51;58.96;99433.38;1088359;54;20131;-78
2022/07/25 03:34:35;;;;;;;;;;;;;;;22.52;58.76;99436.94;1090009;46;20445;-78
2022/07/25 03:35:39;;;;;;;;;;;;;;;22.48;58.54;99433.88;1088367;54;19941;-78
2022/07/25 03:36:43;;;;;;;;;;;;;;;22.42;59.19;99434.78;1088357;54;19950;-79
2022/07/25 03:37:44;;;;;;;;;;;;;;;22.36;59.36;99428.38;1088337;54;19945;-78
2022/07/25 03:38:48;;;;;;;;;;;;;;;22.33;58.86;99430.75;1088835;39;20380;-78
2022/07/25 03:39:49;;;;;;;;;;;;;;;22.32;59.12;99429.94;1088362;54;19946;-78
2022/07/25 03:40:53;;;;;;;;;;;;;;;22.33;59.03;99433.47;1088398;54;19942;-78
2022/07/25 03:41:56;;;;;;;;;;;;;;;22.32;59.11;99426.34;1088379;54;19958;-78
2022/07/25 03:43:00;;;;;;;;;;;;;;;22.31;58.91;99427.41;1088389;54;19950;-79
2022/07/25 03:44:01;;;;;;;;;;;;;;;22.29;58.99;99433.13;1088401;54;19950;-80
2022/07/25 03:45:06;;;;;;;;;;;;;;;22.29;58.88;99433.94;1088403;54;19966;-78
2022/07/25 03:46:07;;;;;;;;;;;;;;;22.30;59.16;99429.34;1090624;46;19966;-78
2022/07/25 03:47:10;;;;;;;;;;;;;;;22.30;59.05;99423.88;1088043;54;19942;-78
2022/07/25 03:48:12;;;;;;;;;;;;;;;22.31;59.59;99424.69;1087924;54;19950;-78
2022/07/25 03:49:15;;;;;;;;;;;;;;;22.27;60.06;99424.34;1088195;39;20390;-78
2022/07/25 03:50:16;;;;;;;;;;;;;;;22.26;59.89;99420.81;1087883;54;19950;-77
2022/07/25 03:51:20;;;;;;;;;;;;;;;22.24;60.15;99414.78;1087876;54;20449;-77
2022/07/25 03:52:21;;;;;;;;;;;;;;;22.24;60.43;99424.84;1088009;54;20523;-78
2022/07/25 03:53:25;;;;;;;;;;;;;;;22.25;60.11;99419.16;1088370;39;20718;-78
2022/07/25 03:54:26;;;;;;;;;;;;;;;22.27;60.33;99413.47;1088031;54;19942;-77
2022/07/25 03:55:30;;;;;;;;;;;;;;;22.27;60.03;99414.31;1087800;54;19966;-78
2022/07/25 03:56:35;;;;;;;;;;;;;;;22.29;60.08;99414.06;1088912;39;20412;-78
2022/07/25 03:57:41;;;;;;;;;;;;;;;22.28;59.83;99407.81;1093179;31;20575;-78
2022/07/25 03:58:42;;;;;;;;;;;;;;;22.30;59.68;99421.16;1088002;54;19966;-77
2022/07/25 03:59:46;;;;;;;;;;;;;;;22.22;60.93;99413.34;1088029;54;19950;-77
2022/07/25 04:00:47;;;;;;;;;;;;;;;22.17;61.14;99407.78;1089399;39;20434;-78
2022/07/25 04:01:53;;;;;;;;;;;;;;;22.21;60.68;99409.78;1088001;54;19938;-78
2022/07/25 04:02:57;;;;;;;;;;;;;;;22.26;60.47;99409.94;1088003;54;19957;-78
2022/07/25 04:03:58;;;;;;;;;;;;;;;22.27;60.42;99402.56;1089692;46;19950;-77
2022/07/25 04:05:02;;;;;;;;;;;;;;;22.24;60.61;99411.22;1088886;39;20529;-79
2022/07/25 04:06:03;;;;;;;;;;;;;;;22.24;60.35;99403.88;1087921;54;19942;-77
2022/07/25 04:07:07;;;;;;;;;;;;;;;22.25;60.28;99404.69;1089358;39;20547;-78
2022/07/25 04:08:08;;;;;;;;;;;;;;;22.26;60.01;99407.19;1089625;46;19950;-78
2022/07/25 04:09:12;;;;;;;;;;;;;;;22.28;60.18;99406.94;1095234;39;20385;-77
2022/07/25 04:10:13;;;;;;;;;;;;;;;22.29;59.86;99406.72;1088384;54;20719;-77
2022/07/25 04:11:17;;;;;;;;;;;;;;;22.31;59.96;99411.94;1088394;54;19978;-79
2022/07/25 04:12:18;;;;;;;;;;;;;;;22.28;60.47;99407.81;1088440;54;19942;-78
2022/07/25 04:13:24;;;;;;;;;;;;;;;22.32;59.87;99410.88;1088440;54;19978;-78
2022/07/25 04:14:25;;;;;;;;;;;;;;;22.32;60.17;99408.16;1088391;54;20488;-78
2022/07/25 04:15:29;;;;;;;;;;;;;;;22.28;60.84;99401.50;1088193;54;19934;-78
2022/07/25 04:16:31;;;;;;;;;;;;;;;22.26;60.74;99407.19;1088276;54;19939;-79
2022/07/25 04:17:34;;;;;;;;;;;;;;;22.26;60.57;99404.47;1087978;54;19943;-79
2022/07/25 04:18:35;;;;;;;;;;;;;;;22.24;61.08;99403.88;1088427;54;19938;-77
2022/07/25 04:19:39;;;;;;;;;;;;;;;22.17;61.56;99403.19;1088382;54;19939;-79
2022/07/25 04:20:40;;;;;;;;;;;;;;;22.16;61.04;99411.56;1088252;54;20285;-79
2022/07/25 04:21:44;;;;;;;;;;;;;;;22.19;60.88;99402.94;1097454;39;20756;-78
2022/07/25 04:22:45;;;;;;;;;;;;;;;22.21;60.57;99407.06;1088455;54;19926;-79
2022/07/25 04:23:49;;;;;;;;;;;;;;;22.23;60.64;99406.84;1088254;54;20026;-79
2022/07/25 04:24:50;;;;;;;;;;;;;;;22.24;60.54;99414.78;1087848;54;19978;-78
2022/07/25 04:25:54;;;;;;;;;;;;;;;22.26;60.38;99409.94;1087948;54;19938;-79
2022/07/25 04:26:55;;;;;;;;;;;;;;;22.23;61.37;99404.13;1088115;54;19927;-79
2022/07/25 04:27:59;;;;;;;;;;;;;;;22.22;61.47;99410.63;1088286;54;20496;-78
2022/07/25 04:29:02;;;;;;;;;;;;;;;22.24;61.01;99409.31;1088322;54;19951;-79
2022/07/25 04:30:07;;;;;;;;;;;;;;;22.27;60.78;99408.88;1088435;47;19931;-79
2022/07/25 04:31:10;;;;;;;;;;;;;;;22.31;60.38;99405.66;1088346;54;19950;-77
2022/07/25 04:32:15;;;;;;;;;;;;;;;22.33;60.68;99403.53;1088348;54;19938;-78
2022/07/25 04:33:17;;;;;;;;;;;;;;;22.34;60.12;99403.28;1088376;54;20006;-78
2022/07/25 04:34:21;;;;;;;;;;;;;;;22.36;60.44;99403.88;1088290;54;19942;-78
2022/07/25 04:35:22;;;;;;;;;;;;;;;22.41;60.06;99397.75;1088326;54;19943;-78
2022/07/25 04:36:26;;;;;;;;;;;;;;;22.42;60.15;99399.41;1090891;39;20395;-78
2022/07/25 04:37:27;;;;;;;;;;;;;;;22.47;60.10;99391.34;1089963;46;19942;-78
2022/07/25 04:38:31;;;;;;;;;;;;;;;22.48;59.81;99390.28;1088322;54;20617;-78
2022/07/25 04:39:32;;;;;;;;;;;;;;;22.49;59.93;99400.09;1088374;54;19942;-78
2022/07/25 04:40:36;;;;;;;;;;;;;;;22.48;60.04;99395.75;1088211;54;20456;-78
2022/07/25 04:41:37;;;;;;;;;;;;;;;22.49;60.08;99400.09;1088226;54;20469;-77
2022/07/25 04:42:41;;;;;;;;;;;;;;;22.50;59.69;99393.56;1087819;54;19942;-77
2022/07/25 04:43:42;;;;;;;;;;;;;;;22.51;59.95;99397.97;1087896;54;19943;-78
2022/07/25 04:44:49;;;;;;;;;;;;;;;22.54;59.90;99392.03;1088119;54;19962;-78
2022/07/25 04:45:50;;;;;;;;;;;;;;;22.56;59.61;99395.38;1088312;54;20536;-79
2022/07/25 04:46:54;;;;;;;;;;;;;;;22.57;59.44;99388.84;1088374;54;19939;-79
2022/07/25 04:47:55;;;;;;;;;;;;;;;22.58;59.54;99395.94;1088237;54;19966;-78
2022/07/25 04:48:58;;;;;;;;;;;;;;;22.59;59.49;99385.88;1090279;39;20329;-79
2022/07/25 04:50:00;;;;;;;;;;;;;;;22.52;59.55;99391.44;1088606;46;19973;-80
2022/07/25 04:51:04;;;;;;;;;;;;;;;22.47;59.30;99388.63;1088192;54;20515;-79
2022/07/25 04:52:05;;;;;;;;;;;;;;;22.47;59.07;99382.34;1088312;54;20041;-79
2022/07/25 04:53:08;;;;;;;;;;;;;;;22.47;59.14;99385.06;1088314;54;19942;-79
2022/07/25 04:54:10;;;;;;;;;;;;;;;22.42;59.47;99383.91;1088220;54;19954;-79
2022/07/25 04:55:13;;;;;;;;;;;;;;;22.42;59.11;99388.50;1088298;54;19942;-80
2022/07/25 04:56:15;;;;;;;;;;;;;;;22.34;59.66;99386.13;1088181;54;19942;-79
2022/07/25 04:57:18;;;;;;;;;;;;;;;22.38;59.12;99387.31;1088233;54;19942;-79
2022/07/25 04:58:22;;;;;;;;;;;;;;;22.40;59.36;99380.59;1088300;54;19938;-80
2022/07/25 04:59:23;;;;;;;;;;;;;;;22.45;59.09;99382.59;1088218;54;19943;-81
2022/07/25 05:00:30;;;;;;;;;;;;;;;22.50;58.66;99379.16;1088902;39;20818;-79
2022/07/25 05:01:31;;;;;;;;;;;;;;;22.53;58.86;99384.94;1087917;54;19943;-79
2022/07/25 05:02:35;;;;;;;;;;;;;;;22.56;58.45;99381.75;1088108;54;19942;-78
2022/07/25 05:03:36;;;;;;;;;;;;;;;22.58;58.68;99378.78;1088322;54;19942;-79
2022/07/25 05:04:40;;;;;;;;;;;;;;;22.63;58.23;99386.22;1088284;54;20298;-78
2022/07/25 05:05:41;;;;;;;;;;;;;;;22.67;58.32;99390.13;1088165;54;19947;-78
2022/07/25 05:06:45;;;;;;;;;;;;;;;22.68;58.05;99387.16;1088331;54;19972;-77
2022/07/25 05:07:46;;;;;;;;;;;;;;;22.67;58.27;99387.41;1088204;54;20212;-78
2022/07/25 05:08:50;;;;;;;;;;;;;;;22.72;58.07;99395.69;1090766;39;20365;-77
2022/07/25 05:09:51;;;;;;;;;;;;;;;22.66;58.23;99391.19;1088246;54;19957;-80
2022/07/25 05:10:55;;;;;;;;;;;;;;;22.61;58.66;99391.06;1088209;54;19939;-77
2022/07/25 05:11:56;;;;;;;;;;;;;;;22.57;58.79;99393.44;1088363;54;19943;-79
2022/07/25 05:12:59;;;;;;;;;;;;;;;22.59;58.55;99396.78;1088326;54;19943;-78
2022/07/25 05:14:03;;;;;;;;;;;;;;;22.55;58.54;99396.44;1088305;54;19942;-79
2022/07/25 05:15:05;;;;;;;;;;;;;;;22.56;58.36;99392.63;1088297;54;19942;-78
2022/07/25 05:16:11;;;;;;;;;;;;;;;22.55;58.40;99398.31;1088140;54;19950;-78
2022/07/25 05:17:12;;;;;;;;;;;;;;;22.51;58.55;99392.50;1088184;54;19950;-77
2022/07/25 05:18:16;;;;;;;;;;;;;;;22.49;58.76;99386.47;1087422;54;19942;-78
2022/07/25 05:19:17;;;;;;;;;;;;;;;22.49;58.73;99386.47;1087792;54;19962;-79
2022/07/25 05:20:21;;;;;;;;;;;;;;;22.45;58.93;99388.03;1087866;54;19950;-78
2022/07/25 05:21:26;;;;;;;;;;;;;;;22.47;58.57;99383.19;1088311;46;19961;-78
2022/07/25 05:22:27;;;;;;;;;;;;;;;22.49;58.56;99388.38;1088265;54;20727;-78
2022/07/25 05:23:31;;;;;;;;;;;;;;;22.36;58.76;99398.41;1088271;54;19950;-78
2022/07/25 05:24:32;;;;;;;;;;;;;;;22.45;58.44;99393.47;1088280;54;19949;-78
2022/07/25 05:25:36;;;;;;;;;;;;;;;22.52;58.48;99393.38;1090722;39;20558;-79
2022/07/25 05:26:37;;;;;;;;;;;;;;;22.51;58.50;99397.97;1088149;54;19942;-78